Time;durP1;ratioP1;P1;durP2;ratioP2;P2;SDS_P1;SDS_P2;PMS_P1;PMS_P2;Temp;Humidity;BMP_temperature;BMP_pressure;BME280_temperature;BME280_humidity;BME280_pressure;Samples;Min_cycle;Max_cycle;Signal;HPM_P1;HPM_P2
2023/02/18 00:00:41;;;;;;;6.38;2.67;;;9.60;99.90;;;;;;2078770;28;20478;-77
2023/02/18 00:01:41;;;;;;;8.18;2.42;;;9.60;99.90;;;;;;2086603;28;20584;-77
2023/02/18 00:02:43;;;;;;;7.57;2.65;;;9.60;99.90;;;;;;2088387;28;20436;-78
2023/02/18 00:03:44;;;;;;;5.32;2.50;;;9.60;99.90;;;;;;2088373;28;20046;-76
2023/02/18 00:04:44;;;;;;;6.15;2.58;;;9.60;99.90;;;;;;2093549;28;20032;-76
2023/02/18 00:05:45;;;;;;;6.82;2.55;;;9.60;99.90;;;;;;2076802;28;20049;-76
2023/02/18 00:06:45;;;;;;;6.32;2.45;;;9.60;99.90;;;;;;2076865;28;20084;-76
2023/02/18 00:07:46;;;;;;;6.82;2.60;;;9.60;99.90;;;;;;2074311;28;20381;-76
2023/02/18 00:08:47;;;;;;;5.32;2.25;;;9.60;99.90;;;;;;2066333;28;20116;-76
2023/02/18 00:09:47;;;;;;;7.82;2.60;;;9.60;99.90;;;;;;2074093;28;20522;-76
2023/02/18 00:10:48;;;;;;;5.93;2.45;;;9.60;99.90;;;;;;2074713;28;20029;-76
2023/02/18 00:11:48;;;;;;;6.22;2.45;;;9.60;99.90;;;;;;2078182;28;20119;-75
2023/02/18 00:12:49;;;;;;;6.32;2.47;;;9.60;99.90;;;;;;2075926;28;20099;-77
2023/02/18 00:13:54;;;;;;;5.40;2.33;;;9.60;99.90;;;;;;2077502;28;20071;-77
2023/02/18 00:14:55;;;;;;;6.43;2.30;;;9.60;99.90;;;;;;2077634;28;20484;-76
2023/02/18 00:16:03;;;;;;;6.35;2.33;;;9.60;99.90;;;;;;2073030;28;20037;-77
2023/02/18 00:17:04;;;;;;;6.75;2.40;;;9.50;99.90;;;;;;2075540;28;20029;-76
2023/02/18 00:18:05;;;;;;;6.90;2.47;;;9.50;99.90;;;;;;2077649;28;20688;-76
2023/02/18 00:19:10;;;;;;;6.00;2.50;;;9.50;99.90;;;;;;2080418;28;20038;-77
2023/02/18 00:20:11;;;;;;;6.05;2.45;;;9.50;99.90;;;;;;2075497;28;20027;-76
2023/02/18 00:21:11;;;;;;;7.47;2.63;;;9.40;99.90;;;;;;2066344;28;20462;-76
2023/02/18 00:22:12;;;;;;;6.85;2.90;;;9.30;99.90;;;;;;2082217;28;20036;-77
2023/02/18 00:23:12;;;;;;;5.55;2.20;;;9.30;99.90;;;;;;2093157;28;20032;-75
2023/02/18 00:24:14;;;;;;;7.97;2.60;;;9.30;99.90;;;;;;2076148;28;20033;-75
2023/02/18 00:25:15;;;;;;;4.18;2.08;;;9.30;99.90;;;;;;2074017;28;20088;-75
2023/02/18 00:26:17;;;;;;;4.65;2.38;;;9.20;99.90;;;;;;2075315;28;20029;-75
2023/02/18 00:27:18;;;;;;;7.57;2.20;;;9.20;99.90;;;;;;2076522;28;20053;-76
2023/02/18 00:28:19;;;;;;;5.38;2.22;;;9.20;99.90;;;;;;2071408;28;20042;-75
2023/02/18 00:29:20;;;;;;;6.75;2.30;;;9.20;99.90;;;;;;2061788;28;20065;-74
2023/02/18 00:30:22;;;;;;;5.35;2.17;;;9.20;99.90;;;;;;2070851;28;20594;-75
2023/02/18 00:31:29;;;;;;;4.97;2.03;;;9.10;99.90;;;;;;2082880;28;20029;-78
2023/02/18 00:32:29;;;;;;;5.45;2.53;;;9.10;99.90;;;;;;2091576;28;20471;-76
2023/02/18 00:33:30;;;;;;;4.70;1.90;;;9.10;99.90;;;;;;2086360;28;20079;-75
2023/02/18 00:34:32;;;;;;;7.57;2.47;;;9.20;99.90;;;;;;2070888;28;20037;-76
2023/02/18 00:35:37;;;;;;;6.18;2.20;;;9.20;99.90;;;;;;2066814;28;20036;-76
2023/02/18 00:36:38;;;;;;;4.80;2.17;;;9.20;99.90;;;;;;2082789;28;20029;-75
2023/02/18 00:37:38;;;;;;;4.00;2.00;;;9.20;99.90;;;;;;2081780;28;20508;-75
2023/02/18 00:38:44;;;;;;;6.10;2.17;;;9.20;99.90;;;;;;2066711;28;20079;-75
2023/02/18 00:39:45;;;;;;;6.70;2.20;;;9.20;99.90;;;;;;2082209;28;20036;-77
2023/02/18 00:40:46;;;;;;;4.78;2.17;;;9.30;99.90;;;;;;2070969;28;20026;-76
2023/02/18 00:41:48;;;;;;;7.35;2.25;;;9.30;99.90;;;;;;2061688;28;20027;-77
2023/02/18 00:42:49;;;;;;;7.47;2.30;;;9.30;99.90;;;;;;2081372;28;20037;-76
2023/02/18 00:43:49;;;;;;;7.45;2.00;;;9.30;99.90;;;;;;2081773;28;20075;-76
2023/02/18 00:44:53;;;;;;;4.95;2.13;;;9.30;99.90;;;;;;2067664;28;20184;-76
2023/02/18 00:45:55;;;;;;;5.72;2.20;;;9.30;99.90;;;;;;2078120;28;20032;-76
2023/02/18 00:46:55;;;;;;;5.32;2.13;;;9.30;99.90;;;;;;2076068;28;20173;-76
2023/02/18 00:47:56;;;;;;;7.05;2.35;;;9.30;99.90;;;;;;2092847;28;20084;-76
2023/02/18 00:48:56;;;;;;;5.28;2.05;;;9.30;99.90;;;;;;2098417;28;20514;-76
2023/02/18 00:49:57;;;;;;;6.10;2.20;;;9.30;99.90;;;;;;2077635;28;20036;-75
2023/02/18 00:50:59;;;;;;;6.38;2.30;;;9.30;99.90;;;;;;2080133;28;20491;-75
2023/02/18 00:52:00;;;;;;;7.72;2.40;;;9.30;99.90;;;;;;2070219;28;20030;-75
2023/02/18 00:53:00;;;;;;;6.40;2.28;;;9.30;99.90;;;;;;2067886;28;20117;-75
2023/02/18 00:54:01;;;;;;;6.25;2.08;;;9.30;99.90;;;;;;2069060;28;20141;-75
2023/02/18 00:55:02;;;;;;;4.47;1.95;;;9.30;99.90;;;;;;2073345;28;20028;-75
2023/02/18 00:56:03;;;;;;;5.85;2.22;;;9.30;99.90;;;;;;2078861;28;20025;-75
2023/02/18 00:57:03;;;;;;;5.45;2.17;;;9.30;99.90;;;;;;2093430;28;20020;-75
2023/02/18 00:58:04;;;;;;;5.88;2.45;;;9.30;99.90;;;;;;2096669;28;20514;-75
2023/02/18 00:59:05;;;;;;;8.55;2.40;;;9.40;99.90;;;;;;2077275;28;20072;-76
2023/02/18 01:00:07;;;;;;;4.95;2.10;;;9.40;99.90;;;;;;2072995;28;20021;-75
2023/02/18 01:01:09;;;;;;;5.10;2.20;;;9.40;99.90;;;;;;2075339;28;20029;-76
2023/02/18 01:02:09;;;;;;;5.35;2.28;;;9.40;99.90;;;;;;2075268;28;20030;-76
2023/02/18 01:03:11;;;;;;;5.50;2.30;;;9.40;99.90;;;;;;2075985;28;20029;-77
2023/02/18 01:04:12;;;;;;;6.38;2.20;;;9.40;99.90;;;;;;2079778;28;20495;-75
2023/02/18 01:05:12;;;;;;;6.28;2.25;;;9.40;99.90;;;;;;2081205;28;20027;-76
2023/02/18 01:06:13;;;;;;;5.57;2.25;;;9.40;99.90;;;;;;2086166;28;20045;-76
2023/02/18 01:07:14;;;;;;;6.30;2.20;;;9.40;99.90;;;;;;2088031;28;20021;-76
2023/02/18 01:08:15;;;;;;;6.25;2.65;;;9.40;99.90;;;;;;2088728;28;20024;-75
2023/02/18 01:09:15;;;;;;;7.28;2.50;;;9.40;99.90;;;;;;2089138;28;20025;-75
2023/02/18 01:10:18;;;;;;;6.50;2.20;;;9.40;99.90;;;;;;2085045;28;20032;-76
2023/02/18 01:11:18;;;;;;;5.97;2.70;;;9.40;99.90;;;;;;2075643;28;20076;-76
2023/02/18 01:12:19;;;;;;;8.57;2.55;;;9.40;99.90;;;;;;2077456;28;20033;-76
2023/02/18 01:13:22;;;;;;;6.15;2.60;;;9.40;99.90;;;;;;2072102;28;20500;-76
2023/02/18 01:14:22;;;;;;;6.88;2.72;;;9.40;99.90;;;;;;2080229;28;20040;-76
2023/02/18 01:15:24;;;;;;;5.50;2.50;;;9.40;99.90;;;;;;2086355;28;20570;-76
2023/02/18 01:16:24;;;;;;;6.47;2.60;;;9.50;99.90;;;;;;2086655;28;20329;-76
2023/02/18 01:17:25;;;;;;;4.63;2.58;;;9.50;99.90;;;;;;2086298;28;20033;-76
2023/02/18 01:18:26;;;;;;;4.47;2.22;;;9.50;99.90;;;;;;2093562;28;20029;-76
2023/02/18 01:19:27;;;;;;;5.82;2.60;;;9.50;99.90;;;;;;2073426;28;20026;-76
2023/02/18 01:20:27;;;;;;;7.43;2.40;;;9.50;99.90;;;;;;2075497;28;20108;-75
2023/02/18 01:21:29;;;;;;;8.05;2.38;;;9.50;99.90;;;;;;2097680;28;20013;-76
2023/02/18 01:22:30;;;;;;;6.72;2.10;;;9.50;99.90;;;;;;2078373;28;20048;-76
2023/02/18 01:23:30;;;;;;;5.80;2.40;;;9.50;99.90;;;;;;2093215;28;20094;-76
2023/02/18 01:24:31;;;;;;;7.40;2.72;;;9.50;99.90;;;;;;2093265;28;20656;-75
2023/02/18 01:25:32;;;;;;;5.32;2.50;;;9.50;99.90;;;;;;2078600;28;20041;-76
2023/02/18 01:26:34;;;;;;;6.90;2.47;;;9.50;99.90;;;;;;2082685;28;20112;-76
2023/02/18 01:27:35;;;;;;;7.35;2.20;;;9.40;99.90;;;;;;2075026;28;20036;-76
2023/02/18 01:28:36;;;;;;;5.82;2.40;;;9.40;99.90;;;;;;2078949;28;20129;-76
2023/02/18 01:29:39;;;;;;;6.63;2.17;;;9.40;99.90;;;;;;2070162;28;20025;-77
2023/02/18 01:30:41;;;;;;;8.38;2.28;;;9.30;99.90;;;;;;2081458;28;20028;-76
2023/02/18 01:31:41;;;;;;;7.88;2.47;;;9.30;99.90;;;;;;2088003;28;20406;-76
2023/02/18 01:32:42;;;;;;;6.32;2.10;;;9.30;99.90;;;;;;2084381;28;20056;-76
2023/02/18 01:33:43;;;;;;;5.85;2.25;;;9.30;99.90;;;;;;2077863;28;20061;-75
2023/02/18 01:34:43;;;;;;;6.78;2.40;;;9.20;99.90;;;;;;2079173;28;20029;-76
2023/02/18 01:35:44;;;;;;;6.80;2.17;;;9.20;99.90;;;;;;2072270;28;20037;-76
2023/02/18 01:36:44;;;;;;;7.45;2.28;;;9.20;99.90;;;;;;2088988;28;20024;-77
2023/02/18 01:37:46;;;;;;;7.28;2.30;;;9.20;99.90;;;;;;2071354;28;20068;-76
2023/02/18 01:38:46;;;;;;;8.02;2.20;;;9.10;99.90;;;;;;2069239;28;20665;-76
2023/02/18 01:39:47;;;;;;;6.45;2.40;;;9.10;99.90;;;;;;2078682;28;20033;-76
2023/02/18 01:40:51;;;;;;;6.97;2.10;;;9.10;99.90;;;;;;2081540;28;20107;-76
2023/02/18 01:41:51;;;;;;;4.50;2.40;;;9.00;99.90;;;;;;2078277;28;20519;-76
2023/02/18 01:42:52;;;;;;;4.63;2.10;;;9.00;99.90;;;;;;2075592;28;20055;-76
2023/02/18 01:44:16;;;;;;;6.38;2.10;;;9.00;99.90;;;;;;2084031;28;20446;-76
2023/02/18 01:45:34;;;;;;;5.07;2.00;;;9.00;99.90;;;;;;2082116;28;20037;-77
2023/02/18 01:46:35;;;;;;;5.63;2.10;;;8.90;99.90;;;;;;2077752;28;20029;-76
2023/02/18 01:47:35;;;;;;;8.88;2.65;;;8.90;99.90;;;;;;2077776;28;20494;-76
2023/02/18 01:48:41;;;;;;;4.57;2.20;;;8.90;99.90;;;;;;2078056;28;20034;-76
2023/02/18 01:49:45;;;;;;;4.97;2.20;;;8.80;99.90;;;;;;2070627;28;20481;-75
2023/02/18 01:50:49;;;;;;;6.55;2.35;;;8.80;99.90;;;;;;2082605;28;20068;-75
2023/02/18 01:51:55;;;;;;;4.35;2.17;;;8.80;99.90;;;;;;2078179;28;20116;-75
2023/02/18 01:52:56;;;;;;;3.55;1.88;;;8.80;99.90;;;;;;2093963;28;20024;-75
2023/02/18 01:54:21;;;;;;;4.25;2.10;;;8.80;99.90;;;;;;2083237;28;20438;-75
2023/02/18 01:55:21;;;;;;;6.43;2.30;;;8.80;99.90;;;;;;2071457;28;20037;-75
2023/02/18 01:56:29;;;;;;;5.18;2.22;;;8.80;99.90;;;;;;2085965;28;20452;-75
2023/02/18 01:57:33;;;;;;;5.97;2.55;;;8.80;99.90;;;;;;2085278;28;20115;-75
2023/02/18 01:58:36;;;;;;;6.35;2.35;;;8.80;99.90;;;;;;2091542;28;20443;-75
2023/02/18 01:59:41;;;;;;;6.60;2.42;;;8.70;99.90;;;;;;2076780;28;20660;-75
2023/02/18 02:00:42;;;;;;;7.07;2.60;;;8.70;99.90;;;;;;2070495;28;20524;-75
2023/02/18 02:01:44;;;;;;;6.57;2.58;;;8.70;99.90;;;;;;2092545;28;20177;-75
2023/02/18 02:02:46;;;;;;;5.72;2.30;;;8.70;99.90;;;;;;2085578;28;20248;-75
2023/02/18 02:03:47;;;;;;;6.30;2.33;;;8.70;99.90;;;;;;2082207;28;20292;-76
2023/02/18 02:04:49;;;;;;;9.02;2.70;;;8.70;99.90;;;;;;2092746;28;20077;-76
2023/02/18 02:05:50;;;;;;;6.40;2.47;;;8.70;99.90;;;;;;2085348;28;20079;-76
2023/02/18 02:06:51;;;;;;;5.43;2.38;;;8.80;99.90;;;;;;2068837;28;20038;-75
2023/02/18 02:07:53;;;;;;;5.82;2.33;;;8.70;99.90;;;;;;2071654;28;20065;-78
2023/02/18 02:08:57;;;;;;;6.00;2.47;;;8.70;99.90;;;;;;2078029;28;20377;-73
2023/02/18 02:09:58;;;;;;;6.97;2.78;;;8.70;99.90;;;;;;2074970;28;20032;-76
2023/02/18 02:11:24;;;;;;;8.13;2.80;;;8.70;99.90;;;;;;2081050;28;20045;-77
2023/02/18 02:12:35;;;;;;;7.93;2.85;;;8.60;99.90;;;;;;2076287;28;20036;-76
2023/02/18 02:14:06;;;;;;;8.07;3.28;;;8.70;99.90;;;;;;2075680;28;20025;-76
2023/02/18 02:15:43;;;;;;;7.18;2.80;;;8.60;99.90;;;;;;2089675;28;20065;-76
2023/02/18 02:16:52;;;;;;;7.43;2.72;;;8.60;99.90;;;;;;2084686;28;20575;-75
2023/02/18 02:18:12;;;;;;;5.97;2.80;;;8.60;99.90;;;;;;2073211;28;20072;-76
2023/02/18 02:19:48;;;;;;;7.60;2.85;;;8.60;99.90;;;;;;2073541;28;20022;-76
2023/02/18 02:21:25;;;;;;;6.13;2.90;;;8.60;99.90;;;;;;2094197;28;20035;-77
2023/02/18 02:23:08;;;;;;;6.97;2.80;;;8.60;99.90;;;;;;2077076;28;20056;-76
2023/02/18 02:24:29;;;;;;;8.90;2.83;;;8.60;99.90;;;;;;2067822;28;20532;-76
2023/02/18 02:25:36;;;;;;;;;;;8.60;99.90;;;;;;2066567;28;20022;-76
2023/02/18 02:27:02;;;;;;;8.00;2.47;;;8.60;99.90;;;;;;2071700;28;19917;-75
2023/02/18 02:28:33;;;;;;;6.30;2.63;;;8.60;99.90;;;;;;2071342;28;20030;-76
2023/02/18 02:30:01;;;;;;;8.77;2.90;;;8.60;99.90;;;;;;2084377;28;20530;-76
2023/02/18 02:31:38;;;;;;;9.10;2.70;;;8.50;99.90;;;;;;2085432;28;20154;-76
2023/02/18 02:33:02;;;;;;;4.95;2.47;;;8.60;99.90;;;;;;2082845;28;20056;-77
2023/02/18 02:34:17;;;;;;;9.70;3.05;;;8.60;99.90;;;;;;2071544;28;20025;-77
2023/02/18 02:35:34;;;;;;;5.07;2.45;;;8.60;99.90;;;;;;2075725;28;20021;-77
2023/02/18 02:37:07;;;;;;;7.70;2.53;;;8.60;99.90;;;;;;2089168;28;20037;-76
2023/02/18 02:38:13;;;;;;;8.10;2.55;;;8.50;99.90;;;;;;2079635;28;20040;-76
2023/02/18 02:39:25;;;;;;;7.35;2.60;;;8.60;99.90;;;;;;2080943;28;20029;-76
2023/02/18 02:40:54;;;;;;;7.80;2.10;;;8.60;99.90;;;;;;2070585;28;20034;-77
2023/02/18 02:42:12;;;;;;;9.20;2.50;;;8.50;99.90;;;;;;2057600;28;21364;-75
2023/02/18 02:43:15;;;;;;;7.28;2.40;;;8.60;99.90;;;;;;2076600;28;20587;-77
2023/02/18 02:44:34;;;;;;;7.60;2.35;;;8.60;99.90;;;;;;2084070;28;20088;-76
2023/02/18 02:45:54;;;;;;;6.28;2.25;;;8.60;99.90;;;;;;2072196;28;20080;-76
2023/02/18 02:47:05;;;;;;;6.65;2.10;;;8.60;99.90;;;;;;2077719;28;20594;-76
2023/02/18 02:48:35;;;;;;;7.43;2.22;;;8.60;99.90;;;;;;2077490;28;20076;-75
2023/02/18 02:50:00;;;;;;;6.28;2.03;;;8.60;99.90;;;;;;2079491;28;20117;-75
2023/02/18 02:51:11;;;;;;;6.80;2.30;;;8.60;99.90;;;;;;2079169;28;20033;-75
2023/02/18 02:52:22;;;;;;;6.18;2.20;;;8.60;99.90;;;;;;2082648;28;20032;-75
2023/02/18 02:53:28;;;;;;;9.75;2.35;;;8.60;99.90;;;;;;2081508;28;20025;-73
2023/02/18 02:54:29;;;;;;;7.10;2.30;;;8.60;99.90;;;;;;2080367;28;20052;-73
2023/02/18 02:55:30;;;;;;;8.00;2.30;;;8.70;99.90;;;;;;2078380;28;20491;-74
2023/02/18 02:56:31;;;;;;;7.60;2.10;;;8.70;99.90;;;;;;2064777;28;20034;-74
2023/02/18 02:57:47;;;;;;;7.50;2.20;;;8.70;99.90;;;;;;2072027;28;20096;-74
2023/02/18 02:59:01;;;;;;;;;;;8.70;99.90;;;;;;2075081;28;20029;-73
2023/02/18 03:00:11;;;;;;;9.32;2.30;;;8.70;99.90;;;;;;2085261;28;19998;-74
2023/02/18 03:01:38;;;;;;;7.63;2.10;;;8.70;99.90;;;;;;2076787;28;20518;-73
2023/02/18 03:03:05;;;;;;;7.80;2.00;;;8.80;99.90;;;;;;2073041;28;20112;-72
2023/02/18 03:04:27;;;;;;;7.22;2.20;;;8.80;99.90;;;;;;2074404;28;20047;-73
2023/02/18 03:05:37;;;;;;;6.55;2.10;;;8.80;99.90;;;;;;2073197;28;20029;-73
2023/02/18 03:06:50;;;;;;;6.85;1.90;;;8.80;99.90;;;;;;2072517;28;20678;-72
2023/02/18 03:08:18;;;;;;;9.32;2.03;;;8.80;99.90;;;;;;2074636;28;20030;-69
2023/02/18 03:09:59;;;;;;;9.63;2.25;;;8.80;99.90;;;;;;2085317;28;20436;-73
2023/02/18 03:11:08;;;;;;;7.15;2.00;;;8.90;99.90;;;;;;2069183;28;20378;-74
2023/02/18 03:12:19;;;;;;;4.85;1.90;;;8.80;99.90;;;;;;2070845;28;20606;-73
2023/02/18 03:13:48;;;;;;;4.93;1.90;;;8.80;99.90;;;;;;2074837;28;20056;-73
2023/02/18 03:15:22;;;;;;;7.57;1.92;;;8.80;99.90;;;;;;2087961;28;20036;-73
2023/02/18 03:16:45;;;;;;;7.30;2.00;;;8.80;99.90;;;;;;2079607;28;20041;-72
2023/02/18 03:18:11;;;;;;;7.32;1.90;;;8.90;99.90;;;;;;2071933;28;20017;-72
2023/02/18 03:19:22;;;;;;;5.65;1.75;;;8.80;99.90;;;;;;2075073;28;20037;-73
2023/02/18 03:20:33;;;;;;;6.80;2.00;;;8.80;99.90;;;;;;2076767;28;20021;-72
2023/02/18 03:21:55;;;;;;;10.07;2.20;;;8.80;99.90;;;;;;2073326;28;20048;-73
2023/02/18 03:22:58;;;;;;;6.90;1.95;;;8.80;99.90;;;;;;2080991;28;20029;-73
2023/02/18 03:24:06;;;;;;;8.07;2.00;;;8.80;99.90;;;;;;2076222;28;20033;-72
2023/02/18 03:25:08;;;;;;;6.47;1.80;;;8.90;99.90;;;;;;2075348;28;20483;-72
2023/02/18 03:26:11;;;;;;;6.05;2.10;;;8.80;99.90;;;;;;2078497;28;20079;-73
2023/02/18 03:27:18;;;;;;;8.73;2.00;;;8.80;99.90;;;;;;2077945;28;20043;-72
2023/02/18 03:28:23;;;;;;;8.07;2.00;;;8.80;99.90;;;;;;2078867;28;20033;-73
2023/02/18 03:29:25;;;;;;;6.40;1.92;;;8.80;99.90;;;;;;2083010;28;20021;-73
2023/02/18 03:30:38;;;;;;;10.10;2.28;;;8.80;99.90;;;;;;2103648;28;20024;-72
2023/02/18 03:31:41;;;;;;;7.93;2.00;;;8.80;99.90;;;;;;2086780;28;20441;-72
2023/02/18 03:32:45;;;;;;;5.88;2.00;;;8.80;99.90;;;;;;2089216;28;20082;-74
2023/02/18 03:34:01;;;;;;;7.60;2.20;;;8.80;99.90;;;;;;2080958;28;20048;-74
2023/02/18 03:35:07;;;;;;;7.57;2.00;;;8.80;99.90;;;;;;2088404;28;20028;-73
2023/02/18 03:36:08;;;;;;;8.60;2.13;;;8.80;99.90;;;;;;2089012;28;20057;-73
2023/02/18 03:37:13;;;;;;;10.25;2.20;;;8.80;99.90;;;;;;2078218;28;20045;-72
2023/02/18 03:38:44;;;;;;;7.35;2.10;;;8.80;99.90;;;;;;2086693;28;20024;-73
2023/02/18 03:39:50;;;;;;;9.25;2.13;;;8.80;99.90;;;;;;2082886;28;20033;-73
2023/02/18 03:40:51;;;;;;;6.53;2.03;;;8.80;99.90;;;;;;2078281;28;20117;-73
2023/02/18 03:41:52;;;;;;;6.65;2.10;;;8.80;99.90;;;;;;2080012;28;20025;-74
2023/02/18 03:42:53;;;;;;;10.07;2.47;;;8.80;99.90;;;;;;2078774;28;20842;-75
2023/02/18 03:43:59;;;;;;;6.53;1.90;;;8.80;99.90;;;;;;2079906;28;20581;-73
2023/02/18 03:45:01;;;;;;;8.20;2.08;;;8.80;99.90;;;;;;2087277;28;20027;-73
2023/02/18 03:46:03;;;;;;;9.02;2.13;;;8.80;99.90;;;;;;2088587;28;20541;-72
2023/02/18 03:47:03;;;;;;;8.13;2.25;;;8.80;99.90;;;;;;2087810;28;20043;-73
2023/02/18 03:48:04;;;;;;;9.57;2.20;;;8.80;99.90;;;;;;2084942;28;20055;-73
2023/02/18 03:49:05;;;;;;;8.60;2.25;;;8.80;99.90;;;;;;2069639;28;20036;-74
2023/02/18 03:50:06;;;;;;;9.45;2.10;;;8.80;99.90;;;;;;2076645;28;20040;-73
2023/02/18 03:51:07;;;;;;;7.75;2.08;;;8.70;99.90;;;;;;2088922;28;20084;-73
2023/02/18 03:52:08;;;;;;;6.85;2.17;;;8.70;99.90;;;;;;2078475;28;20033;-73
2023/02/18 03:53:08;;;;;;;7.88;2.08;;;8.70;99.90;;;;;;2078670;28;20070;-73
2023/02/18 03:54:13;;;;;;;9.77;2.45;;;8.70;99.90;;;;;;2094700;28;20558;-73
2023/02/18 03:55:14;;;;;;;8.88;2.00;;;8.70;99.90;;;;;;2087216;28;20029;-74
2023/02/18 03:56:15;;;;;;;10.90;2.40;;;8.80;99.90;;;;;;2092255;28;20029;-75
2023/02/18 03:57:15;;;;;;;9.98;2.30;;;8.70;99.90;;;;;;2074981;28;20393;-73
2023/02/18 03:58:16;;;;;;;6.65;2.35;;;8.70;99.90;;;;;;2080986;28;20112;-72
2023/02/18 03:59:17;;;;;;;8.07;2.10;;;8.70;99.90;;;;;;2075940;28;20037;-73
2023/02/18 04:00:18;;;;;;;6.47;2.20;;;8.70;99.90;;;;;;2077645;28;20043;-73
2023/02/18 04:01:18;;;;;;;7.18;2.20;;;8.70;99.90;;;;;;2081973;28;20059;-73
2023/02/18 04:02:19;;;;;;;6.32;2.10;;;8.70;99.90;;;;;;2074917;28;20114;-73
2023/02/18 04:03:19;;;;;;;5.97;2.13;;;8.70;99.90;;;;;;2084456;28;20491;-73
2023/02/18 04:04:20;;;;;;;7.93;2.40;;;8.60;99.90;;;;;;2083414;28;20056;-73
2023/02/18 04:05:20;;;;;;;8.98;2.30;;;8.70;99.90;;;;;;2074945;28;20052;-73
2023/02/18 04:06:22;;;;;;;8.88;2.65;;;8.70;99.90;;;;;;2082414;28;20149;-74
2023/02/18 04:07:23;;;;;;;7.65;2.20;;;8.70;99.90;;;;;;2082848;28;20031;-73
2023/02/18 04:08:23;;;;;;;6.82;2.10;;;8.70;99.90;;;;;;2080337;28;20120;-73
2023/02/18 04:09:24;;;;;;;7.85;2.20;;;8.70;99.90;;;;;;2071644;28;20056;-74
2023/02/18 04:10:24;;;;;;;6.47;1.92;;;8.70;99.90;;;;;;2076868;28;20053;-74
2023/02/18 04:11:25;;;;;;;7.20;2.40;;;8.70;99.90;;;;;;2065968;28;20539;-73
2023/02/18 04:12:25;;;;;;;7.93;2.20;;;8.70;99.90;;;;;;2078752;28;20033;-74
2023/02/18 04:13:26;;;;;;;7.70;2.15;;;8.70;99.90;;;;;;2093956;28;20056;-74
2023/02/18 04:14:27;;;;;;;9.50;2.50;;;8.70;99.90;;;;;;2084632;28;20111;-73
2023/02/18 04:15:28;;;;;;;10.20;2.47;;;8.70;99.90;;;;;;2079792;28;20029;-73
2023/02/18 04:16:28;;;;;;;5.93;2.45;;;8.70;99.90;;;;;;2081853;28;20025;-74
2023/02/18 04:17:29;;;;;;;8.50;2.35;;;8.70;99.90;;;;;;2080502;28;20427;-73
2023/02/18 04:18:29;;;;;;;10.50;2.60;;;8.60;99.90;;;;;;2074879;28;20036;-74
2023/02/18 04:19:30;;;;;;;9.02;2.63;;;8.60;99.90;;;;;;2092210;28;20537;-72
2023/02/18 04:20:30;;;;;;;8.52;2.38;;;8.60;99.90;;;;;;2090509;28;20036;-72
2023/02/18 04:21:32;;;;;;;8.52;2.42;;;8.60;99.90;;;;;;2074731;28;20033;-72
2023/02/18 04:22:32;;;;;;;9.48;2.42;;;8.70;99.90;;;;;;2071253;28;20567;-72
2023/02/18 04:23:33;;;;;;;7.93;2.25;;;8.70;99.90;;;;;;2081968;28;20063;-73
2023/02/18 04:24:33;;;;;;;9.68;2.65;;;8.70;99.90;;;;;;2095078;28;20078;-73
2023/02/18 04:25:34;;;;;;;7.07;2.33;;;8.70;99.90;;;;;;2078509;28;20098;-73
2023/02/18 04:26:35;;;;;;;8.55;2.53;;;8.70;99.90;;;;;;2071473;28;20060;-74
2023/02/18 04:27:35;;;;;;;11.13;2.70;;;8.70;99.90;;;;;;2078273;28;20040;-72
2023/02/18 04:28:36;;;;;;;9.82;2.50;;;8.70;99.90;;;;;;2095371;28;20036;-75
2023/02/18 04:29:37;;;;;;;7.68;2.42;;;8.70;99.90;;;;;;2095433;28;20032;-73
2023/02/18 04:30:38;;;;;;;10.77;2.90;;;8.60;99.90;;;;;;2098138;28;20025;-73
2023/02/18 04:31:38;;;;;;;8.40;3.22;;;8.60;99.90;;;;;;2088195;28;20028;-73
2023/02/18 04:32:39;;;;;;;6.25;2.28;;;8.60;99.90;;;;;;2075839;28;20136;-73
2023/02/18 04:33:40;;;;;;;8.90;2.65;;;8.60;99.90;;;;;;2079528;28;20091;-73
2023/02/18 04:34:40;;;;;;;8.90;2.90;;;8.60;99.90;;;;;;2080065;28;20108;-73
2023/02/18 04:35:41;;;;;;;10.68;2.60;;;8.60;99.90;;;;;;2076230;28;20332;-72
2023/02/18 04:36:42;;;;;;;8.98;2.70;;;8.60;99.90;;;;;;2093936;28;20492;-73
2023/02/18 04:37:42;;;;;;;10.32;3.00;;;8.60;99.90;;;;;;2089704;28;20071;-73
2023/02/18 04:38:43;;;;;;;9.00;2.47;;;8.60;99.90;;;;;;2078723;28;20123;-72
2023/02/18 04:39:43;;;;;;;10.48;2.92;;;8.60;99.90;;;;;;2081181;28;20557;-73
2023/02/18 04:40:44;;;;;;;7.53;2.60;;;8.60;99.90;;;;;;2075273;28;20570;-72
2023/02/18 04:41:44;;;;;;;7.68;2.75;;;8.60;99.90;;;;;;2075585;28;20539;-73
2023/02/18 04:42:45;;;;;;;7.50;2.63;;;8.60;99.90;;;;;;2079717;28;20056;-73
2023/02/18 04:43:45;;;;;;;7.53;2.72;;;8.60;99.90;;;;;;2075685;28;20061;-73
2023/02/18 04:44:46;;;;;;;9.15;2.70;;;8.60;99.90;;;;;;2077690;28;20021;-72
2023/02/18 04:45:46;;;;;;;8.07;2.55;;;8.50;99.90;;;;;;2081186;28;20139;-72
2023/02/18 04:46:47;;;;;;;7.97;2.55;;;8.60;99.90;;;;;;2067836;28;20029;-73
2023/02/18 04:47:47;;;;;;;11.73;3.13;;;8.60;99.90;;;;;;2068785;28;20036;-73
2023/02/18 04:48:48;;;;;;;8.23;2.53;;;8.60;99.90;;;;;;2078762;28;20075;-73
2023/02/18 04:49:49;;;;;;;7.93;2.85;;;8.50;99.90;;;;;;2081923;28;20040;-73
2023/02/18 04:50:49;;;;;;;8.95;2.88;;;8.50;99.90;;;;;;2083240;28;20037;-73
2023/02/18 04:51:50;;;;;;;8.82;2.70;;;8.50;99.90;;;;;;2082204;28;20021;-73
2023/02/18 04:52:50;;;;;;;10.07;2.78;;;8.60;99.90;;;;;;2077039;28;20033;-73
2023/02/18 04:53:51;;;;;;;10.80;3.00;;;8.50;99.90;;;;;;2077367;28;20372;-74
2023/02/18 04:54:52;;;;;;;10.73;2.95;;;8.50;99.90;;;;;;2067263;28;20473;-73
2023/02/18 04:55:53;;;;;;;10.75;2.85;;;8.50;99.90;;;;;;2080966;28;20420;-74
2023/02/18 04:56:53;;;;;;;7.82;2.47;;;8.50;99.90;;;;;;2085541;28;20227;-73
2023/02/18 04:57:54;;;;;;;8.77;2.88;;;8.50;99.90;;;;;;2083080;28;20502;-73
2023/02/18 04:58:54;;;;;;;8.50;2.88;;;8.50;99.90;;;;;;2086937;28;20530;-73
2023/02/18 04:59:55;;;;;;;9.07;3.10;;;8.50;99.90;;;;;;2080573;28;20036;-73
2023/02/18 05:01:03;;;;;;;11.65;3.80;;;8.50;99.90;;;;;;2079385;28;20029;-73
2023/02/18 05:02:04;;;;;;;10.63;3.80;;;8.50;99.90;;;;;;2076377;28;20500;-73
2023/02/18 05:03:05;;;;;;;9.45;3.83;;;8.60;99.90;;;;;;2080477;28;20108;-72
2023/02/18 05:04:05;;;;;;;10.35;4.00;;;8.60;99.90;;;;;;2068898;28;20030;-73
2023/02/18 05:05:06;;;;;;;10.32;3.88;;;8.60;99.90;;;;;;2081294;28;20052;-72
2023/02/18 05:06:06;;;;;;;12.40;4.40;;;8.60;99.90;;;;;;2083613;28;20037;-72
2023/02/18 05:07:07;;;;;;;11.48;4.18;;;8.70;99.90;;;;;;2089504;28;20060;-73
2023/02/18 05:08:08;;;;;;;8.68;4.38;;;8.70;99.90;;;;;;2076483;28;20028;-73
2023/02/18 05:09:09;;;;;;;12.88;4.68;;;8.70;99.90;;;;;;2076071;28;20021;-74
2023/02/18 05:10:13;;;;;;;13.27;4.70;;;8.70;99.90;;;;;;2075664;28;20403;-73
2023/02/18 05:11:13;;;;;;;11.10;4.30;;;8.70;99.90;;;;;;2084096;28;20029;-72
2023/02/18 05:12:14;;;;;;;13.15;4.50;;;8.70;99.90;;;;;;2101982;28;21093;-73
2023/02/18 05:13:14;;;;;;;13.48;4.97;;;8.70;99.90;;;;;;2093045;28;20085;-73
2023/02/18 05:14:15;;;;;;;10.07;4.65;;;8.70;99.90;;;;;;2083193;28;20037;-72
2023/02/18 05:15:16;;;;;;;12.00;4.70;;;8.70;99.90;;;;;;2070542;28;20056;-74
2023/02/18 05:16:16;;;;;;;11.70;4.50;;;8.70;99.90;;;;;;2072851;28;20523;-74
2023/02/18 05:17:17;;;;;;;15.40;4.40;;;8.70;99.90;;;;;;2075489;28;20037;-74
2023/02/18 05:18:17;;;;;;;12.23;4.32;;;8.70;99.90;;;;;;2088063;28;20028;-74
2023/02/18 05:19:18;;;;;;;10.93;4.40;;;8.70;99.90;;;;;;2084624;28;20025;-74
2023/02/18 05:20:18;;;;;;;13.82;4.40;;;8.70;99.90;;;;;;2078280;28;20069;-74
2023/02/18 05:21:19;;;;;;;13.90;4.10;;;8.70;99.90;;;;;;2075314;28;20048;-74
2023/02/18 05:22:19;;;;;;;10.40;4.38;;;8.70;99.90;;;;;;2084935;28;20072;-74
2023/02/18 05:23:20;;;;;;;12.20;4.38;;;8.70;99.90;;;;;;2079016;28;20033;-74
2023/02/18 05:24:21;;;;;;;10.60;4.20;;;8.70;99.90;;;;;;2077743;28;20049;-74
2023/02/18 05:25:21;;;;;;;13.05;4.38;;;8.70;99.90;;;;;;2083649;28;20116;-74
2023/02/18 05:26:22;;;;;;;11.60;4.47;;;8.70;99.90;;;;;;2078291;28;20569;-74
2023/02/18 05:27:23;;;;;;;11.02;4.38;;;8.70;99.90;;;;;;2078384;28;20034;-73
2023/02/18 05:28:23;;;;;;;15.93;4.22;;;8.70;99.90;;;;;;2087356;28;20039;-73
2023/02/18 05:29:24;;;;;;;12.00;4.53;;;8.70;99.90;;;;;;2085416;28;20035;-74
2023/02/18 05:30:24;;;;;;;11.15;4.35;;;8.70;99.90;;;;;;2075229;28;20518;-73
2023/02/18 05:31:25;;;;;;;13.18;4.43;;;8.60;99.90;;;;;;2076527;28;20091;-74
2023/02/18 05:32:25;;;;;;;12.15;4.20;;;8.70;99.90;;;;;;2088998;28;20119;-75
2023/02/18 05:33:26;;;;;;;12.63;4.72;;;8.70;99.90;;;;;;2079770;28;20029;-74
2023/02/18 05:34:26;;;;;;;12.93;4.60;;;8.70;99.90;;;;;;2079713;28;20040;-72
2023/02/18 05:35:27;;;;;;;11.75;4.13;;;8.70;99.90;;;;;;2080510;28;20040;-72
2023/02/18 05:36:28;;;;;;;13.35;4.65;;;8.70;99.90;;;;;;2072633;28;20049;-73
2023/02/18 05:37:28;;;;;;;11.23;4.40;;;8.60;99.90;;;;;;2069458;28;20033;-73
2023/02/18 05:38:29;;;;;;;14.25;4.63;;;8.60;99.90;;;;;;2068208;28;20130;-72
2023/02/18 05:39:29;;;;;;;14.90;5.07;;;8.60;99.90;;;;;;2092058;28;20089;-72
2023/02/18 05:40:30;;;;;;;13.15;4.55;;;8.70;99.90;;;;;;2078043;28;20029;-75
2023/02/18 05:41:30;;;;;;;14.13;4.97;;;8.70;99.90;;;;;;2072494;28;20069;-74